Time;durP1;ratioP1;P1;durP2;ratioP2;P2;SDS_P1;SDS_P2;PMS_P1;PMS_P2;Temp;Humidity;BMP_temperature;BMP_pressure;BME280_temperature;BME280_humidity;BME280_pressure;Samples;Min_cycle;Max_cycle;Signal;HPM_P1;HPM_P2
2023/05/09 00:01:12;;;;;;;4.12;2.70;;;;;;;6.36;87.73;99466.87;4500257;31;20160;-64
2023/05/09 00:03:41;;;;;;;3.85;2.65;;;;;;;6.27;88.59;99470.00;4500107;31;20112;-64
2023/05/09 00:06:10;;;;;;;4.55;2.35;;;;;;;6.21;89.61;99469.44;4500332;31;20088;-64
2023/05/09 00:08:37;;;;;;;4.20;2.28;;;;;;;6.15;90.39;99472.44;4498770;31;20122;-64
2023/05/09 00:11:04;;;;;;;5.25;2.45;;;;;;;6.10;91.12;99464.06;4500174;31;20104;-64
2023/05/09 00:13:33;;;;;;;3.50;2.28;;;;;;;6.12;91.03;99466.59;4486052;31;20434;-64
2023/05/09 00:16:00;;;;;;;5.05;2.50;;;;;;;6.08;92.08;99465.91;4496004;31;20175;-64
2023/05/09 00:18:29;;;;;;;3.72;2.60;;;;;;;6.04;92.43;99465.25;4499956;31;20121;-64
2023/05/09 00:20:57;;;;;;;3.15;2.20;;;;;;;5.99;93.69;99459.47;4500005;31;20572;-64
2023/05/09 00:23:24;;;;;;;4.15;2.72;;;;;;;5.99;93.53;99466.47;4499904;31;20609;-64
2023/05/09 00:25:51;;;;;;;4.05;2.70;;;;;;;5.97;93.94;99460.53;4499927;31;20142;-64
2023/05/09 00:28:19;;;;;;;4.97;2.28;;;;;;;5.94;94.30;99452.87;4500027;31;20159;-64
2023/05/09 00:30:46;;;;;;;4.90;2.58;;;;;;;5.91;95.53;99459.06;4499525;31;20080;-64
2023/05/09 00:33:14;;;;;;;4.75;2.85;;;;;;;5.84;95.79;99447.34;4496072;31;20160;-64
2023/05/09 00:35:41;;;;;;;6.28;2.90;;;;;;;5.81;96.14;99447.53;4486182;31;20130;-64
2023/05/09 00:38:08;;;;;;;5.22;2.83;;;;;;;5.82;96.16;99442.25;4486201;31;20100;-64
2023/05/09 00:40:35;;;;;;;4.05;2.65;;;;;;;5.76;97.28;99440.00;4486140;31;20096;-64
2023/05/09 00:43:03;;;;;;;5.18;3.12;;;;;;;5.76;97.17;99445.22;4486074;32;20096;-64
2023/05/09 00:45:30;;;;;;;4.47;2.72;;;;;;;5.67;98.00;99443.97;4486407;32;20139;-64
2023/05/09 00:48:00;;;;;;;5.00;2.50;;;;;;;5.68;97.99;99437.03;4486168;31;20118;-64
2023/05/09 00:50:27;;;;;;;4.25;2.90;;;;;;;5.60;98.71;99444.44;4485894;31;20143;-63
2023/05/09 00:52:54;;;;;;;4.28;2.65;;;;;;;5.55;99.56;99447.28;4486244;32;20158;-64
2023/05/09 00:55:22;;;;;;;5.22;3.05;;;;;;;5.51;100.00;99441.44;4486023;31;20092;-64
2023/05/09 00:57:49;;;;;;;4.53;2.95;;;;;;;5.46;100.00;99435.66;4486151;31;20108;-64
2023/05/09 01:00:17;;;;;;;3.42;2.37;;;;;;;5.47;100.00;99441.72;4485936;31;20526;-64
2023/05/09 01:02:48;;;;;;;4.50;2.70;;;;;;;5.45;100.00;99439.19;4486067;31;20857;-63
2023/05/09 01:05:15;;;;;;;4.50;3.28;;;;;;;5.41;100.00;99435.09;4485996;32;20088;-63
2023/05/09 01:08:12;;;;;;;6.47;2.58;;;;;;;5.44;100.00;99436.69;4484736;32;20114;-64
2023/05/09 01:10:47;;;;;;;5.07;2.85;;;;;;;5.48;100.00;99430.37;4484670;32;20205;-64
2023/05/09 01:13:23;;;;;;;3.45;2.53;;;;;;;5.60;99.87;99436.63;4484781;32;20119;-63
2023/05/09 01:16:00;;;;;;;3.25;2.45;;;;;;;5.62;98.81;99433.03;4496583;31;20092;-64
2023/05/09 01:18:49;;;;;;;8.43;3.00;;;;;;;5.60;99.10;99434.03;4500516;31;20088;-64
2023/05/09 01:21:23;;;;;;;4.30;3.00;;;;;;;5.49;100.00;99438.06;4501759;31;20385;-64
2023/05/09 01:23:59;;;;;;;4.75;3.12;;;;;;;5.52;100.00;99434.47;4501963;31;20126;-64
2023/05/09 01:26:57;;;;;;;3.37;2.30;;;;;;;5.48;100.00;99433.81;4500310;31;20170;-64
2023/05/09 01:29:57;;;;;;;4.28;2.78;;;;;;;5.40;100.00;99428.22;4501709;31;20088;-64
2023/05/09 01:32:27;;;;;;;3.90;2.37;;;;;;;5.30;100.00;99438.31;4423756;32;20097;-64
2023/05/09 01:34:55;;;;;;;4.35;2.78;;;;;;;5.28;100.00;99436.72;4436487;32;20145;-64
2023/05/09 01:37:33;;;;;;;4.45;2.50;;;;;;;5.22;100.00;99435.28;4436759;32;20101;-64
2023/05/09 01:40:08;;;;;;;4.97;2.87;;;;;;;5.17;100.00;99426.09;4436693;32;20135;-64
2023/05/09 01:42:42;;;;;;;4.82;2.72;;;;;;;5.17;100.00;99421.75;4423644;32;20469;-64
2023/05/09 01:45:11;;;;;;;8.82;3.35;;;;;;;5.19;100.00;99422.47;4436846;32;20157;-63
2023/05/09 01:47:39;;;;;;;3.90;2.70;;;;;;;5.07;100.00;99426.62;4423950;32;20132;-63
2023/05/09 01:50:08;;;;;;;5.15;2.72;;;;;;;5.07;100.00;99421.44;4423616;32;20459;-63
2023/05/09 01:52:36;;;;;;;5.40;2.97;;;;;;;5.10;100.00;99426.44;4423712;32;20117;-63
2023/05/09 01:55:05;;;;;;;6.50;2.97;;;;;;;5.05;100.00;99423.25;4436199;32;20514;-63
2023/05/09 01:57:34;;;;;;;6.82;3.08;;;;;;;4.98;100.00;99419.31;4423856;32;20101;-63
2023/05/09 02:00:02;;;;;;;5.85;2.83;;;;;;;4.92;100.00;99417.06;4423657;32;20090;-63
2023/05/09 02:02:39;;;;;;;4.07;2.70;;;;;;;4.90;100.00;99416.31;4424628;32;20148;-64
2023/05/09 02:05:10;;;;;;;4.80;2.78;;;;;;;4.83;100.00;99412.38;4423855;32;20113;-64
2023/05/09 02:07:37;;;;;;;5.90;2.90;;;;;;;4.79;100.00;99409.97;4456823;31;20096;-63
2023/05/09 02:10:06;;;;;;;8.50;3.05;;;;;;;4.74;100.00;99417.19;4500066;31;20087;-64
2023/05/09 02:12:37;;;;;;;6.72;2.80;;;;;;;4.69;100.00;99410.56;4492091;31;20110;-64
2023/05/09 02:15:05;;;;;;;7.97;3.20;;;;;;;4.71;100.00;99409.56;4490877;31;20159;-63
2023/05/09 02:17:32;;;;;;;7.10;2.83;;;;;;;4.74;100.00;99408.53;4501449;31;20138;-64
2023/05/09 02:19:59;;;;;;;4.53;2.80;;;;;;;4.73;100.00;99412.91;4501473;31;20107;-64
2023/05/09 02:22:27;;;;;;;5.62;3.10;;;;;;;4.67;100.00;99408.06;4501147;31;20464;-64
2023/05/09 02:24:54;;;;;;;5.20;2.97;;;;;;;4.63;100.00;99416.91;4501246;31;20100;-63
2023/05/09 02:27:21;;;;;;;5.90;3.35;;;;;;;4.58;100.00;99414.56;4499903;31;20552;-63
2023/05/09 02:29:50;;;;;;;5.90;2.83;;;;;;;4.53;100.00;99407.97;4501299;31;20114;-63
2023/05/09 02:32:28;;;;;;;9.55;3.75;;;;;;;4.57;100.00;99407.72;4500939;31;20147;-64
2023/05/09 02:34:57;;;;;;;5.78;3.33;;;;;;;4.52;100.00;99404.53;4501469;31;20459;-64
2023/05/09 02:37:24;;;;;;;6.65;2.97;;;;;;;4.49;100.00;99402.09;4499778;31;20536;-63
2023/05/09 02:39:51;;;;;;;5.85;3.00;;;;;;;4.46;100.00;99397.06;4501155;31;20099;-63
2023/05/09 02:42:21;;;;;;;5.35;2.95;;;;;;;4.53;100.00;99392.41;4499798;31;20520;-63
2023/05/09 02:44:48;;;;;;;5.10;2.60;;;;;;;4.52;100.00;99398.50;4501173;31;20092;-63
2023/05/09 02:47:15;;;;;;;6.12;3.70;;;;;;;4.55;100.00;99399.16;4501336;31;20523;-63
2023/05/09 02:49:43;;;;;;;5.53;3.37;;;;;;;4.54;100.00;99397.50;4500887;31;20481;-64
2023/05/09 02:52:11;;;;;;;6.90;3.05;;;;;;;4.49;100.00;99391.72;4500895;31;20100;-63
2023/05/09 02:54:38;;;;;;;6.35;3.25;;;;;;;4.46;100.00;99391.87;4500197;31;20152;-63
2023/05/09 02:57:05;;;;;;;5.80;3.17;;;;;;;4.49;100.00;99393.50;4501145;31;20163;-63
2023/05/09 02:59:32;;;;;;;5.55;3.10;;;;;;;4.47;100.00;99392.72;4501233;31;20625;-64
2023/05/09 03:02:00;;;;;;;5.43;3.42;;;;;;;4.41;100.00;99394.72;4501079;31;20458;-63
2023/05/09 03:04:28;;;;;;;5.22;2.97;;;;;;;4.49;100.00;99396.09;4501464;31;20351;-63
2023/05/09 03:06:55;;;;;;;5.43;3.45;;;;;;;4.41;100.00;99391.31;4501049;31;20104;-63
2023/05/09 03:09:23;;;;;;;5.72;2.83;;;;;;;4.46;100.00;99389.28;4501400;31;20257;-63
2023/05/09 03:11:50;;;;;;;6.43;3.35;;;;;;;4.50;100.00;99387.38;4497917;31;20156;-63
2023/05/09 03:14:17;;;;;;;4.47;2.72;;;;;;;4.51;100.00;99386.44;4485404;31;20113;-63
2023/05/09 03:16:44;;;;;;;6.28;3.37;;;;;;;4.54;100.00;99381.09;4499337;31;20127;-63
2023/05/09 03:19:13;;;;;;;9.77;3.30;;;;;;;4.59;100.00;99389.47;4501032;31;20433;-64
2023/05/09 03:21:40;;;;;;;5.70;3.08;;;;;;;4.58;100.00;99387.78;4500737;31;20099;-63
2023/05/09 03:24:09;;;;;;;4.70;2.97;;;;;;;4.59;100.00;99392.91;4501008;31;20120;-63
2023/05/09 03:26:36;;;;;;;5.65;3.12;;;;;;;4.57;100.00;99391.28;4500675;31;20129;-63
2023/05/09 03:29:03;;;;;;;6.43;3.15;;;;;;;4.53;100.00;99389.81;4500786;31;20170;-63
2023/05/09 03:31:30;;;;;;;8.80;3.22;;;;;;;4.59;100.00;99394.66;4500537;31;20110;-63
2023/05/09 03:33:58;;;;;;;5.90;3.05;;;;;;;4.63;100.00;99390.97;4500472;31;20161;-64
2023/05/09 03:36:26;;;;;;;9.20;2.75;;;;;;;4.69;100.00;99385.44;4500952;31;20088;-63
2023/05/09 03:38:53;;;;;;;4.93;2.53;;;;;;;4.83;100.00;99394.22;4500690;31;20092;-63
2023/05/09 03:41:21;;;;;;;12.70;2.80;;;;;;;4.98;100.00;99390.75;4500928;31;20595;-63
2023/05/09 03:43:49;;;;;;;7.50;2.42;;;;;;;5.15;100.00;99397.63;4500739;31;20125;-64
2023/05/09 03:46:16;;;;;;;7.03;2.80;;;;;;;5.25;100.00;99398.75;4500544;31;20422;-63
2023/05/09 03:48:44;;;;;;;3.42;1.98;;;;;;;5.29;100.00;99399.44;4500113;31;20588;-63
2023/05/09 03:51:11;;;;;;;5.07;2.65;;;;;;;5.34;100.00;99392.19;4500353;31;20108;-63
2023/05/09 03:53:38;;;;;;;8.68;2.60;;;;;;;5.44;100.00;99395.94;4500170;31;20092;-63
2023/05/09 03:56:06;;;;;;;5.25;2.60;;;;;;;5.63;100.00;99400.06;4500567;31;20496;-63
2023/05/09 03:58:36;;;;;;;8.60;2.62;;;;;;;5.74;100.00;99397.69;4500310;31;20118;-63
2023/05/09 04:01:03;;;;;;;6.70;2.90;;;;;;;5.88;100.00;99394.25;4493038;31;20130;-63
2023/05/09 04:03:31;;;;;;;5.20;2.25;;;;;;;6.01;100.00;99402.16;4483808;31;20089;-64
2023/05/09 04:05:58;;;;;;;5.37;2.42;;;;;;;6.06;99.98;99400.16;4484015;32;20180;-63
2023/05/09 04:08:26;;;;;;;4.25;2.62;;;;;;;6.12;99.35;99399.78;4485795;32;20108;-63
2023/05/09 04:10:53;;;;;;;7.37;2.67;;;;;;;6.24;98.17;99397.34;4486538;32;20469;-63
2023/05/09 04:13:21;;;;;;;5.32;2.90;;;;;;;6.34;97.37;99393.25;4499249;31;20103;-63
2023/05/09 04:15:49;;;;;;;5.57;2.53;;;;;;;6.42;96.36;99400.56;4491736;31;20612;-63
2023/05/09 04:18:17;;;;;;;6.97;3.25;;;;;;;6.48;96.56;99408.84;4485708;31;20092;-63
2023/05/09 04:20:44;;;;;;;4.85;2.80;;;;;;;6.63;95.81;99398.41;4484885;32;20101;-63
2023/05/09 04:23:11;;;;;;;3.22;2.20;;;;;;;6.70;94.11;99410.12;4484728;31;20162;-63
2023/05/09 04:25:39;;;;;;;5.20;2.47;;;;;;;6.78;93.50;99396.59;4486009;31;20088;-63
2023/05/09 04:28:07;;;;;;;6.95;3.45;;;;;;;6.88;93.60;99397.69;4485957;31;20103;-63
2023/05/09 04:30:35;;;;;;;5.37;2.90;;;;;;;6.97;92.44;99399.72;4486022;31;20115;-63
2023/05/09 04:33:03;;;;;;;3.75;2.20;;;;;;;7.04;91.88;99403.59;4485953;31;20100;-63
2023/05/09 04:35:31;;;;;;;6.25;2.80;;;;;;;7.14;90.89;99408.22;4485906;31;20135;-63
2023/05/09 04:37:58;;;;;;;5.35;2.42;;;;;;;7.31;90.08;99409.72;4486140;32;20099;-63
2023/05/09 04:40:26;;;;;;;4.57;2.42;;;;;;;7.34;89.73;99409.50;4493006;31;20173;-64
2023/05/09 04:42:53;;;;;;;8.57;2.78;;;;;;;7.49;88.69;99398.06;4494934;31;20153;-63
2023/05/09 04:45:21;;;;;;;18.20;3.95;;;;;;;7.59;88.56;99404.34;4486254;31;20108;-63
2023/05/09 04:47:48;;;;;;;6.10;3.65;;;;;;;7.68;87.07;99404.69;4484936;32;20160;-63
2023/05/09 04:50:16;;;;;;;4.82;2.58;;;;;;;7.79;86.55;99410.00;4486021;31;20162;-64
2023/05/09 04:52:43;;;;;;;4.25;2.45;;;;;;;7.89;85.04;99405.84;4485182;31;20118;-63
2023/05/09 04:55:11;;;;;;;11.10;2.42;;;;;;;7.81;84.40;99410.72;4485147;31;20101;-63
2023/05/09 04:57:39;;;;;;;4.90;2.40;;;;;;;7.86;84.51;99410.41;4486106;31;20100;-63
2023/05/09 05:00:10;;;;;;;7.12;2.47;;;;;;;7.90;84.46;99399.69;4485981;31;20115;-63
2023/05/09 05:02:38;;;;;;;6.37;2.50;;;;;;;8.08;82.60;99409.78;4486216;31;20096;-63
2023/05/09 05:05:05;;;;;;;3.17;2.15;;;;;;;8.12;83.04;99404.25;4486035;31;20156;-63
2023/05/09 05:07:39;;;;;;;6.15;2.50;;;;;;;8.35;82.73;99413.09;4495750;31;20083;-63
2023/05/09 05:10:07;;;;;;;6.35;2.35;;;;;;;8.23;81.35;99420.94;4493559;31;20091;-63
2023/05/09 05:12:35;;;;;;;25.30;3.83;;;;;;;8.23;83.10;99419.16;4492122;31;20104;-63
2023/05/09 05:15:06;;;;;;;12.98;3.28;;;;;;;8.23;82.72;99419.16;4485222;31;20132;-64
2023/05/09 05:17:33;;;;;;;7.50;2.17;;;;;;;8.13;83.10;99425.94;4495838;31;20613;-63
2023/05/09 05:20:02;;;;;;;7.37;2.65;;;;;;;8.07;82.32;99426.38;4492946;31;20143;-63
2023/05/09 05:22:29;;;;;;;9.57;2.95;;;;;;;8.01;83.08;99430.25;4499529;31;20489;-63
2023/05/09 05:24:58;;;;;;;31.90;3.80;;;;;;;7.95;84.19;99423.69;4493901;31;20536;-64
2023/05/09 05:27:26;;;;;;;9.35;3.42;;;;;;;8.14;84.76;99423.22;4490433;31;20160;-63
2023/05/09 05:29:53;;;;;;;60.67;4.28;;;;;;;8.23;83.16;99427.00;4489137;31;20112;-64
2023/05/09 05:32:20;;;;;;;20.23;2.80;;;;;;;8.35;82.80;99433.16;4488352;31;20112;-63
2023/05/09 05:34:48;;;;;;;40.45;3.72;;;;;;;8.61;80.29;99431.34;4500084;31;20449;-64
2023/05/09 05:37:15;;;;;;;15.23;3.60;;;;;;;8.72;79.62;99421.91;4495073;31;20115;-64
2023/05/09 05:39:42;;;;;;;41.75;4.82;;;;;;;8.55;79.36;99429.16;4496697;31;20235;-63
2023/05/09 05:42:10;;;;;;;42.70;5.00;;;;;;;8.78;79.45;99413.66;4500865;31;20159;-64
2023/05/09 05:44:39;;;;;;;11.80;3.30;;;;;;;8.92;78.35;99421.34;4498534;31;20115;-62
2023/05/09 05:47:06;;;;;;;14.85;2.67;;;;;;;9.06;76.74;99415.94;4496639;31;20118;-64
2023/05/09 05:49:33;;;;;;;24.58;2.72;;;;;;;9.02;75.67;99419.75;4500277;31;20155;-63
2023/05/09 05:52:01;;;;;;;23.70;3.97;;;;;;;9.16;76.12;99415.25;4498679;31;20097;-64
2023/05/09 05:54:28;;;;;;;10.85;2.90;;;;;;;9.18;75.77;99421.25;4488561;31;20374;-63
2023/05/09 05:56:55;;;;;;;19.77;2.85;;;;;;;9.21;75.22;99426.25;4499032;31;20118;-64
2023/05/09 05:59:23;;;;;;;27.27;3.47;;;;;;;9.33;75.71;99420.09;4493731;31;20083;-64
2023/05/09 06:01:50;;;;;;;8.30;2.83;;;;;;;9.44;75.47;99413.25;4482970;31;20096;-64
2023/05/09 06:04:17;;;;;;;19.48;3.03;;;;;;;9.51;75.35;99422.31;4484686;31;20112;-64
2023/05/09 06:06:45;;;;;;;3.97;2.20;;;;;;;9.64;74.77;99420.44;4483545;31;20600;-62
2023/05/09 06:09:13;;;;;;;5.50;2.70;;;;;;;9.69;72.17;99427.94;4483892;31;20092;-64
2023/05/09 06:11:41;;;;;;;13.27;3.55;;;;;;;9.76;73.74;99427.38;4481220;31;20101;-63
2023/05/09 06:14:08;;;;;;;16.90;2.55;;;;;;;9.94;73.45;99434.78;4482918;31;20096;-63
2023/05/09 06:16:35;;;;;;;26.67;3.15;;;;;;;10.00;72.36;99429.06;4483872;31;20174;-65
2023/05/09 06:19:03;;;;;;;15.13;2.25;;;;;;;10.07;71.45;99424.22;4483625;31;20115;-65
2023/05/09 06:21:30;;;;;;;15.02;4.53;;;;;;;9.96;71.68;99417.16;4484698;31;20470;-65
2023/05/09 06:23:58;;;;;;;16.70;2.65;;;;;;;9.91;71.90;99417.50;4480478;31;20534;-66
2023/05/09 06:26:36;;;;;;;3.15;1.87;;;;;;;10.08;73.61;99416.25;4484428;31;20093;-65
2023/05/09 06:29:05;;;;;;;5.28;2.35;;;;;;;10.42;71.45;99423.31;4484025;31;20143;-66
2023/05/09 06:31:37;;;;;;;6.82;1.95;;;;;;;10.26;69.89;99418.38;4485775;31;20123;-66
2023/05/09 06:34:04;;;;;;;6.80;2.10;;;;;;;10.28;70.41;99422.56;4481202;31;20249;-65
2023/05/09 06:36:33;;;;;;;40.55;3.67;;;;;;;10.37;70.59;99417.56;4482927;31;20121;-66
2023/05/09 06:39:00;;;;;;;4.93;2.47;;;;;;;10.50;68.96;99409.59;4479957;31;20514;-66
2023/05/09 06:41:28;;;;;;;17.40;2.78;;;;;;;10.36;69.42;99411.50;4486852;31;20121;-65
2023/05/09 06:43:55;;;;;;;6.53;2.10;;;;;;;10.51;70.00;99416.47;4484491;31;20088;-67
2023/05/09 06:46:22;;;;;;;80.72;5.97;;;;;;;10.62;70.08;99408.63;4488738;31;20096;-65
2023/05/09 06:48:50;;;;;;;8.63;2.37;;;;;;;10.72;68.09;99412.19;4483999;31;20130;-65
2023/05/09 06:51:17;;;;;;;5.37;2.37;;;;;;;10.74;69.14;99407.66;4486084;31;20152;-64
2023/05/09 06:53:44;;;;;;;5.05;2.67;;;;;;;11.04;68.51;99405.28;4490152;31;20126;-67
2023/05/09 06:56:11;;;;;;;9.00;3.28;;;;;;;11.27;66.88;99412.13;4485776;31;20596;-66
2023/05/09 06:58:38;;;;;;;19.52;2.65;;;;;;;11.29;65.56;99401.50;4487389;31;20139;-66
2023/05/09 07:01:05;;;;;;;10.13;2.70;;;;;;;11.31;65.13;99405.69;4483896;31;20154;-66
2023/05/09 07:03:33;;;;;;;6.07;2.50;;;;;;;11.31;65.46;99405.69;4485909;31;20104;-67
2023/05/09 07:06:00;;;;;;;13.48;2.42;;;;;;;11.22;66.07;99401.19;4486138;31;20092;-67
2023/05/09 07:08:27;;;;;;;6.07;1.80;;;;;;;11.41;65.05;99395.25;4487248;31;20076;-66
2023/05/09 07:10:55;;;;;;;4.47;2.40;;;;;;;11.41;66.93;99403.12;4485905;31;20104;-67
2023/05/09 07:13:22;;;;;;;22.50;2.95;;;;;;;11.75;65.71;99402.94;4482393;31;20116;-66
2023/05/09 07:15:49;;;;;;;4.10;1.80;;;;;;;11.95;64.37;99409.16;4487727;31;20111;-66
2023/05/09 07:18:17;;;;;;;4.78;1.77;;;;;;;12.04;62.99;99407.56;4484468;31;20127;-64
2023/05/09 07:20:44;;;;;;;6.78;1.70;;;;;;;12.35;62.33;99392.59;4486439;31;20161;-63
2023/05/09 07:23:11;;;;;;;9.88;2.03;;;;;;;12.30;62.20;99392.19;4489797;31;20115;-63
2023/05/09 07:25:38;;;;;;;2.87;1.55;;;;;;;12.43;62.03;99387.53;4481994;31;20112;-64
2023/05/09 07:28:05;;;;;;;2.92;1.10;;;;;;;12.65;59.90;99384.81;4483594;31;20126;-63
2023/05/09 07:30:33;;;;;;;9.20;1.62;;;;;;;12.65;59.79;99380.38;4487376;31;20126;-63
2023/05/09 07:33:00;;;;;;;4.62;1.37;;;;;;;12.67;58.69;99388.97;4486850;31;20558;-63
2023/05/09 07:35:28;;;;;;;5.65;1.48;;;;;;;12.82;58.83;99393.84;4487383;31;20111;-64
2023/05/09 07:37:55;;;;;;;6.80;1.60;;;;;;;12.80;57.86;99390.53;4484887;31;20088;-65
2023/05/09 07:40:23;;;;;;;8.20;1.40;;;;;;;13.05;61.87;99373.38;4485132;31;20166;-64
2023/05/09 07:42:52;;;;;;;4.47;1.00;;;;;;;13.20;58.50;99386.94;4488203;31;20139;-65
2023/05/09 07:45:19;;;;;;;3.00;1.40;;;;;;;13.23;58.95;99376.13;4485491;31;20164;-65
2023/05/09 07:47:50;;;;;;;5.35;1.37;;;;;;;13.47;59.08;99387.09;4483960;31;20118;-65
2023/05/09 07:50:17;;;;;;;12.75;1.70;;;;;;;13.25;57.99;99385.56;4482204;31;79261;-64
2023/05/09 07:52:44;;;;;;;7.95;2.03;;;;;;;13.21;57.77;99380.72;4485645;31;20100;-64
2023/05/09 07:55:11;;;;;;;3.85;1.75;;;;;;;13.24;57.19;99373.38;4481318;31;20096;-63
2023/05/09 07:57:39;;;;;;;4.50;1.17;;;;;;;13.20;58.67;99373.78;4481700;31;20171;-63
2023/05/09 08:00:07;;;;;;;1.20;0.95;;;;;;;13.35;57.75;99371.59;4485105;31;20116;-62
2023/05/09 08:02:39;;;;;;;2.65;1.42;;;;;;;13.29;57.85;99368.53;4483899;31;20084;-63
2023/05/09 08:05:10;;;;;;;8.70;1.52;;;;;;;13.09;58.48;99366.88;4485220;31;20132;-63
2023/05/09 08:07:37;;;;;;;10.18;1.30;;;;;;;13.17;57.22;99366.16;4485879;31;20119;-63
2023/05/09 08:10:05;;;;;;;12.18;1.60;;;;;;;13.28;57.56;99364.22;4484860;31;20112;-63
2023/05/09 08:12:33;;;;;;;3.80;1.10;;;;;;;13.25;56.34;99366.31;4482238;31;20096;-62
2023/05/09 08:15:01;;;;;;;7.97;1.40;;;;;;;13.45;57.52;99361.88;4482296;31;20093;-63
2023/05/09 08:17:28;;;;;;;4.70;1.40;;;;;;;13.42;57.02;99363.00;4486015;31;20176;-63
2023/05/09 08:19:56;;;;;;;3.72;1.80;;;;;;;13.48;55.02;99364.25;4484450;31;20554;-63
2023/05/09 08:22:23;;;;;;;1.73;1.25;;;;;;;13.46;56.82;99363.56;4485872;31;20176;-62
2023/05/09 08:24:51;;;;;;;3.95;1.40;;;;;;;13.36;55.56;99357.47;4484458;31;20083;-63
2023/05/09 08:27:18;;;;;;;1.55;1.20;;;;;;;13.38;57.17;99360.78;4482509;31;20151;-63
2023/05/09 08:29:45;;;;;;;2.00;1.30;;;;;;;13.52;56.59;99359.50;4482683;31;20114;-63
2023/05/09 08:32:13;;;;;;;6.35;1.90;;;;;;;13.47;57.00;99350.25;4477686;31;20165;-63
2023/05/09 08:34:40;;;;;;;1.48;1.10;;;;;;;13.60;57.88;99355.19;4484644;31;20099;-63
2023/05/09 08:37:07;;;;;;;2.45;1.27;;;;;;;13.84;58.03;99356.53;4480757;31;20088;-62
2023/05/09 08:39:34;;;;;;;3.87;1.37;;;;;;;13.96;54.81;99350.12;4481760;31;20130;-63
2023/05/09 08:42:03;;;;;;;2.65;1.20;;;;;;;14.08;58.59;99357.81;4481055;31;20159;-62
2023/05/09 08:44:30;;;;;;;1.80;0.75;;;;;;;14.23;55.87;99360.81;4485981;31;20100;-63
2023/05/09 08:46:59;;;;;;;2.78;1.40;;;;;;;14.30;51.57;99352.16;4483449;31;20122;-63
2023/05/09 08:49:29;;;;;;;4.30;0.98;;;;;;;14.40;54.25;99349.50;4482656;31;20503;-62
2023/05/09 08:51:57;;;;;;;2.10;1.08;;;;;;;14.59;53.03;99351.16;4483727;31;20183;-63
2023/05/09 08:54:25;;;;;;;2.40;1.77;;;;;;;14.48;52.33;99352.22;4480929;31;21287;-63
2023/05/09 08:56:53;;;;;;;5.72;1.10;;;;;;;14.44;53.51;99339.47;4486845;31;22089;-63
2023/05/09 08:59:20;;;;;;;16.58;2.28;;;;;;;14.67;52.76;99348.66;4483028;31;20100;-62
2023/05/09 09:01:47;;;;;;;27.48;4.45;;;;;;;14.84;53.48;99348.84;4486993;31;20461;-62
2023/05/09 09:04:14;;;;;;;3.60;1.48;;;;;;;14.73;51.80;99337.53;4482183;31;20126;-63
2023/05/09 09:06:42;;;;;;;4.57;1.10;;;;;;;14.62;51.48;99334.25;4487176;31;20454;-62
2023/05/09 09:09:10;;;;;;;4.32;1.65;;;;;;;14.87;55.78;99325.63;4483044;31;20138;-62
2023/05/09 09:11:39;;;;;;;3.45;1.42;;;;;;;15.03;52.26;99327.56;4484419;31;20107;-62
2023/05/09 09:14:26;;;;;;;19.20;3.83;;;;;;;14.92;51.01;99330.44;4482195;31;20092;-63
2023/05/09 09:16:54;;;;;;;3.90;1.17;;;;;;;14.75;51.70;99329.47;4482605;31;20123;-63
2023/05/09 09:19:26;;;;;;;4.85;1.80;;;;;;;14.89;50.97;99320.19;4484498;31;20096;-64
2023/05/09 09:21:56;;;;;;;2.33;1.20;;;;;;;15.07;50.42;99333.38;4484001;31;20143;-64
2023/05/09 09:24:23;;;;;;;8.23;1.48;;;;;;;15.01;51.22;99334.78;4481935;31;20096;-65
2023/05/09 09:26:51;;;;;;;3.87;0.98;;;;;;;14.84;52.78;99330.37;4484351;31;20156;-65
2023/05/09 09:29:22;;;;;;;4.12;1.27;;;;;;;14.92;51.00;99338.34;4485095;31;20153;-65
2023/05/09 09:31:53;;;;;;;2.97;0.80;;;;;;;15.17;50.94;99333.28;4486558;31;20148;-65
2023/05/09 09:34:22;;;;;;;3.55;1.25;;;;;;;15.08;49.90;99330.56;4484656;31;20100;-64
2023/05/09 09:36:50;;;;;;;1.95;0.90;;;;;;;15.26;50.22;99340.25;4484772;31;20101;-65
2023/05/09 09:39:18;;;;;;;3.08;1.27;;;;;;;15.40;50.34;99331.00;4485913;31;20160;-65
2023/05/09 09:41:45;;;;;;;4.72;1.25;;;;;;;15.49;50.03;99326.56;4487575;31;21117;-64
2023/05/09 09:44:15;;;;;;;1.27;0.93;;;;;;;15.67;48.53;99324.72;4484840;31;20155;-64
2023/05/09 09:46:42;;;;;;;4.03;1.00;;;;;;;15.66;49.37;99324.88;4482612;31;20896;-64
2023/05/09 09:49:11;;;;;;;3.85;0.95;;;;;;;15.46;47.66;99326.88;4484447;31;20142;-64
2023/05/09 09:51:39;;;;;;;5.12;1.10;;;;;;;15.79;51.10;99320.00;4484056;31;20108;-64
2023/05/09 09:54:08;;;;;;;3.85;0.88;;;;;;;16.14;46.71;99316.38;4483057;31;20438;-64
2023/05/09 09:56:49;;;;;;;3.92;0.90;;;;;;;16.22;46.12;99304.19;4481362;31;21374;-64
2023/05/09 09:59:18;;;;;;;11.85;1.27;;;;;;;15.64;44.73;99318.91;4486480;31;20092;-67
2023/05/09 10:02:03;;;;;;;4.57;1.17;;;;;;;15.34;46.25;99306.03;4480686;31;20112;-64
2023/05/09 10:04:40;;;;;;;7.82;0.88;;;;;;;15.15;45.98;99314.94;4489783;31;20167;-65
2023/05/09 10:07:09;;;;;;;4.43;1.33;;;;;;;15.24;45.81;99306.09;4488739;31;20145;-65
2023/05/09 10:09:42;;;;;;;8.52;1.00;;;;;;;15.52;44.80;99310.41;4490546;31;20224;-64
2023/05/09 10:12:10;;;;;;;4.57;0.93;;;;;;;15.67;45.90;99298.31;4489296;31;20123;-64
2023/05/09 10:14:37;;;;;;;2.37;0.90;;;;;;;15.73;46.12;99302.97;4485074;31;20164;-63
2023/05/09 10:17:05;;;;;;;2.42;1.10;;;;;;;16.04;44.95;99305.09;4484632;31;20090;-64
2023/05/09 10:19:34;;;;;;;3.58;1.05;;;;;;;16.07;42.95;99302.16;4482384;31;21235;-64
2023/05/09 10:22:07;;;;;;;5.72;1.48;;;;;;;15.57;43.30;99300.22;4483616;31;20698;-64
2023/05/09 10:24:47;;;;;;;36.53;2.78;;;;;;;15.53;45.26;99297.06;4483317;31;20122;-65
2023/05/09 10:27:18;;;;;;;5.43;0.70;;;;;;;15.72;43.45;99296.03;4484814;31;20087;-65
2023/05/09 10:29:49;;;;;;;1.35;0.65;;;;;;;15.57;44.89;99282.56;4492632;31;20679;-66
2023/05/09 10:32:23;;;;;;;1.90;0.80;;;;;;;15.88;44.29;99290.03;4481238;31;20099;-65
2023/05/09 10:34:53;;;;;;;12.73;1.42;;;;;;;15.69;45.59;99296.34;4489880;31;20112;-64
2023/05/09 10:37:21;;;;;;;27.42;2.00;;;;;;;15.81;45.77;99293.47;4490513;31;20071;-65
2023/05/09 10:39:52;;;;;;;1.33;0.95;;;;;;;15.95;46.04;99282.28;4484911;31;20154;-64
2023/05/09 10:42:20;;;;;;;5.37;1.20;;;;;;;15.64;46.39;99289.84;4493198;31;20168;-65
2023/05/09 10:44:48;;;;;;;39.42;2.80;;;;;;;15.74;45.56;99299.31;4483406;31;20100;-64
2023/05/09 10:47:16;;;;;;;12.90;2.03;;;;;;;15.47;44.91;99287.13;4497698;31;20585;-64
2023/05/09 10:49:44;;;;;;;1.83;1.30;;;;;;;15.21;46.00;99293.22;4485098;31;20116;-65
2023/05/09 10:52:11;;;;;;;8.52;0.90;;;;;;;14.91;45.70;99307.66;4489879;31;20611;-66
2023/05/09 10:54:39;;;;;;;4.43;1.00;;;;;;;15.02;46.62;99290.78;4494934;31;20179;-65
2023/05/09 10:57:09;;;;;;;1.52;1.08;;;;;;;15.34;47.14;99298.09;4491243;31;20809;-66
2023/05/09 10:59:36;;;;;;;4.35;0.77;;;;;;;16.15;46.38;99290.78;4493564;31;20457;-66
2023/05/09 11:02:04;;;;;;;21.25;2.10;;;;;;;16.44;43.03;99292.16;4489144;31;20115;-66
2023/05/09 11:04:32;;;;;;;1.87;1.10;;;;;;;16.88;44.92;99284.03;4487961;31;20103;-67
2023/05/09 11:06:59;;;;;;;6.22;1.52;;;;;;;17.26;42.55;99280.81;4481242;31;20115;-66
2023/05/09 11:09:32;;;;;;;3.78;1.10;;;;;;;17.12;43.00;99277.87;4495530;31;20088;-67
2023/05/09 11:12:15;;;;;;;6.15;1.27;;;;;;;17.38;42.80;99282.13;4494426;31;20465;-67
2023/05/09 11:14:47;;;;;;;6.00;1.35;;;;;;;16.90;41.95;99275.91;4489272;31;20371;-67
2023/05/09 11:17:20;;;;;;;1.55;0.93;;;;;;;16.07;43.25;99275.72;4486022;31;20088;-68
2023/05/09 11:19:47;;;;;;;7.03;1.30;;;;;;;16.07;44.15;99256.41;4487198;31;20100;-67
2023/05/09 11:22:31;;;;;;;10.30;1.05;;;;;;;16.00;43.89;99261.47;4493388;31;20107;-67
2023/05/09 11:25:00;;;;;;;6.12;1.30;;;;;;;16.47;44.29;99253.03;4492816;31;20520;-68
2023/05/09 11:27:28;;;;;;;5.82;1.12;;;;;;;16.43;44.60;99261.44;4484140;31;20104;-68
2023/05/09 11:29:57;;;;;;;1.60;1.02;;;;;;;16.65;43.82;99260.81;4492663;31;20573;-68
2023/05/09 11:32:30;;;;;;;4.47;1.00;;;;;;;16.37;42.07;99256.81;4480750;31;20464;-67
2023/05/09 11:35:18;;;;;;;13.82;1.62;;;;;;;17.28;44.16;99249.72;4485786;31;20492;-67
2023/05/09 11:37:50;;;;;;;10.85;1.12;;;;;;;17.19;43.02;99249.72;4489517;31;20085;-68
2023/05/09 11:40:18;;;;;;;4.87;1.35;;;;;;;17.32;40.50;99243.94;4487693;31;20143;-68
2023/05/09 11:42:48;;;;;;;1.40;1.05;;;;;;;17.64;41.06;99255.44;4487860;31;20114;-68